Time;durP1;ratioP1;P1;durP2;ratioP2;P2;SDS_P1;SDS_P2;PMS_P1;PMS_P2;Temp;Humidity;BMP_temperature;BMP_pressure;BME280_temperature;BME280_humidity;BME280_pressure;Samples;Min_cycle;Max_cycle;Signal;HPM_P1;HPM_P2
2022/02/16 00:02:18;;;;;;;18.60;13.67;;;;;;;;;;5053351;28;20284;-84
2022/02/16 00:04:45;;;;;;;17.17;14.33;;;;;;;;;;5053316;28;20212;-84
2022/02/16 00:07:12;;;;;;;18.57;14.57;;;;;;;;;;5053196;28;20202;-84
2022/02/16 00:09:40;;;;;;;22.13;13.97;;;;;;;;;;5053260;28;20190;-83
2022/02/16 00:12:08;;;;;;;15.03;13.43;;;;;;;;;;5053118;28;20197;-85
2022/02/16 00:14:36;;;;;;;16.10;13.73;;;;;;;;;;5053208;28;20666;-84
2022/02/16 00:17:05;;;;;;;16.73;12.93;;;;;;;;;;5053059;28;20201;-84
2022/02/16 00:19:32;;;;;;;17.87;13.73;;;;;;;;;;5052703;28;20225;-84
2022/02/16 00:22:00;;;;;;;18.60;14.20;;;;;;;;;;5053191;28;20213;-84
2022/02/16 00:24:27;;;;;;;15.40;12.87;;;;;;;;;;5052906;28;20194;-84
2022/02/16 00:26:54;;;;;;;19.80;14.87;;;;;;;;;;5052925;28;20236;-84
2022/02/16 00:29:22;;;;;;;17.10;14.47;;;;;;;;;;5052981;28;20213;-85
2022/02/16 00:31:49;;;;;;;33.97;24.87;;;;;;;;;;5052868;28;20690;-85
2022/02/16 00:34:18;;;;;;;20.50;16.80;;;;;;;;;;5052703;28;20228;-84
2022/02/16 00:36:46;;;;;;;18.70;13.87;;;;;;;;;;5052696;28;20285;-85
2022/02/16 00:39:13;;;;;;;16.33;14.47;;;;;;;;;;5052507;28;20248;-85
2022/02/16 00:41:40;;;;;;;20.43;15.07;;;;;;;;;;5052598;28;20286;-85
2022/02/16 00:44:08;;;;;;;17.67;14.87;;;;;;;;;;5052584;28;20194;-85
2022/02/16 00:46:35;;;;;;;17.37;13.80;;;;;;;;;;5052585;28;20197;-84
2022/02/16 00:49:02;;;;;;;18.50;14.47;;;;;;;;;;5052471;28;20215;-84
2022/02/16 00:51:31;;;;;;;14.87;13.33;;;;;;;;;;5052302;28;20316;-84
2022/02/16 00:53:59;;;;;;;18.30;14.17;;;;;;;;;;5052764;28;20281;-84
2022/02/16 00:56:26;;;;;;;18.80;14.30;;;;;;;;;;5052415;28;20281;-84
2022/02/16 00:58:53;;;;;;;20.73;14.73;;;;;;;;;;5052452;28;20244;-84
2022/02/16 01:01:20;;;;;;;17.50;13.77;;;;;;;;;;5052257;28;20225;-84
2022/02/16 01:03:48;;;;;;;21.23;15.23;;;;;;;;;;5052235;28;20556;-84
2022/02/16 01:06:15;;;;;;;20.43;14.27;;;;;;;;;;5051941;28;20636;-83
2022/02/16 01:08:44;;;;;;;18.53;14.97;;;;;;;;;;5052333;28;20194;-84
2022/02/16 01:11:11;;;;;;;19.17;16.20;;;;;;;;;;5051878;28;20193;-84
2022/02/16 01:13:38;;;;;;;19.63;14.80;;;;;;;;;;5051983;28;20194;-84
2022/02/16 01:16:06;;;;;;;16.67;14.27;;;;;;;;;;5051976;28;20675;-84
2022/02/16 01:18:34;;;;;;;22.13;17.47;;;;;;;;;;5051778;28;20229;-83
2022/02/16 01:21:01;;;;;;;21.80;16.90;;;;;;;;;;5051868;28;20293;-83
2022/02/16 01:23:29;;;;;;;20.33;16.97;;;;;;;;;;5051855;28;20202;-84
2022/02/16 01:25:57;;;;;;;18.27;14.43;;;;;;;;;;5051826;28;20198;-83
2022/02/16 01:28:24;;;;;;;19.90;16.50;;;;;;;;;;5052049;28;20201;-84
2022/02/16 01:30:52;;;;;;;19.87;15.30;;;;;;;;;;5051795;28;20239;-84
2022/02/16 01:33:19;;;;;;;20.90;16.77;;;;;;;;;;5051729;28;20194;-88
2022/02/16 01:35:46;;;;;;;20.07;15.53;;;;;;;;;;5051970;28;20197;-84
2022/02/16 01:38:14;;;;;;;19.33;15.37;;;;;;;;;;5051656;28;20260;-84
2022/02/16 01:40:41;;;;;;;23.47;14.30;;;;;;;;;;5052457;28;20646;-84
2022/02/16 01:43:10;;;;;;;18.37;14.70;;;;;;;;;;5055785;28;20588;-84
2022/02/16 01:45:37;;;;;;;18.53;15.33;;;;;;;;;;5055686;28;20285;-84
2022/02/16 01:48:06;;;;;;;23.17;16.63;;;;;;;;;;5056226;28;20194;-84
2022/02/16 01:50:34;;;;;;;18.33;14.60;;;;;;;;;;5055714;28;20369;-82
2022/02/16 01:53:01;;;;;;;19.63;16.33;;;;;;;;;;5055406;28;20328;-83
2022/02/16 01:55:28;;;;;;;20.47;16.53;;;;;;;;;;5055633;28;20194;-83
2022/02/16 01:57:56;;;;;;;21.27;17.03;;;;;;;;;;5055460;28;20297;-83
2022/02/16 02:00:24;;;;;;;18.50;15.73;;;;;;;;;;5055420;28;20202;-84
2022/02/16 02:02:52;;;;;;;22.67;17.10;;;;;;;;;;5055450;28;20284;-84
2022/02/16 02:05:19;;;;;;;22.40;17.50;;;;;;;;;;5055383;28;20273;-82
2022/02/16 02:07:46;;;;;;;22.07;18.30;;;;;;;;;;5055525;28;20241;-82
2022/02/16 02:10:14;;;;;;;23.97;18.17;;;;;;;;;;5055285;28;20200;-82
2022/02/16 02:12:45;;;;;;;23.30;16.47;;;;;;;;;;5055502;28;20198;-82
2022/02/16 02:15:12;;;;;;;20.13;16.50;;;;;;;;;;5055457;28;20197;-82
2022/02/16 02:17:41;;;;;;;23.43;16.47;;;;;;;;;;5055223;28;20241;-81
2022/02/16 02:20:21;;;;;;;23.13;16.33;;;;;;;;;;5054945;28;20709;-81
2022/02/16 02:22:48;;;;;;;20.73;16.17;;;;;;;;;;5055470;28;20186;-81
2022/02/16 02:25:15;;;;;;;18.63;14.63;;;;;;;;;;5055063;28;20577;-82
2022/02/16 02:27:43;;;;;;;18.77;14.73;;;;;;;;;;5055079;28;20202;-81
2022/02/16 02:30:11;;;;;;;18.37;14.90;;;;;;;;;;5054992;28;20201;-82
2022/02/16 02:32:41;;;;;;;18.63;14.40;;;;;;;;;;5054978;28;20216;-82
2022/02/16 02:35:10;;;;;;;19.57;15.73;;;;;;;;;;5055043;28;20205;-82
2022/02/16 02:37:39;;;;;;;17.77;14.00;;;;;;;;;;5055153;28;20285;-82
2022/02/16 02:40:08;;;;;;;16.87;13.93;;;;;;;;;;5054804;28;20226;-82
2022/02/16 02:42:38;;;;;;;21.57;14.80;;;;;;;;;;5054995;28;20212;-82
2022/02/16 02:45:06;;;;;;;16.30;13.93;;;;;;;;;;5054910;28;20205;-82
2022/02/16 02:47:33;;;;;;;15.77;12.97;;;;;;;;;;5054579;28;20289;-81
2022/02/16 02:50:01;;;;;;;18.77;14.20;;;;;;;;;;5054942;28;20210;-82
2022/02/16 02:52:30;;;;;;;24.37;16.53;;;;;;;;;;5053786;28;20336;-81
2022/02/16 02:54:59;;;;;;;22.43;15.73;;;;;;;;;;5054499;28;20201;-82
2022/02/16 02:57:26;;;;;;;32.90;23.70;;;;;;;;;;5054547;28;20208;-82
2022/02/16 02:59:54;;;;;;;24.77;20.10;;;;;;;;;;5054362;28;20706;-81
2022/02/16 03:02:23;;;;;;;22.67;16.57;;;;;;;;;;5054602;28;20198;-82
2022/02/16 03:04:50;;;;;;;20.20;14.87;;;;;;;;;;5054197;28;20201;-82
2022/02/16 03:07:18;;;;;;;20.43;14.93;;;;;;;;;;5054266;28;20684;-82
2022/02/16 03:09:45;;;;;;;19.23;14.43;;;;;;;;;;5054508;28;20280;-82
2022/02/16 03:12:13;;;;;;;15.97;13.53;;;;;;;;;;5054170;28;20197;-82
2022/02/16 03:14:41;;;;;;;17.13;14.30;;;;;;;;;;5054287;28;20202;-82
2022/02/16 03:17:08;;;;;;;15.67;13.33;;;;;;;;;;5054263;28;20289;-82
2022/02/16 03:19:35;;;;;;;16.67;14.23;;;;;;;;;;5053939;28;20236;-82
2022/02/16 03:22:03;;;;;;;15.23;13.03;;;;;;;;;;5054017;28;20230;-82
2022/02/16 03:24:30;;;;;;;17.67;14.83;;;;;;;;;;5053946;28;20677;-82
2022/02/16 03:26:57;;;;;;;29.67;21.60;;;;;;;;;;5053914;28;20202;-82
2022/02/16 03:29:26;;;;;;;23.33;16.57;;;;;;;;;;5053921;28;20209;-82
2022/02/16 03:31:53;;;;;;;46.33;34.27;;;;;;;;;;5053829;28;20202;-82
2022/02/16 03:34:20;;;;;;;21.00;16.90;;;;;;;;;;5053668;28;20197;-81
2022/02/16 03:36:48;;;;;;;21.47;16.20;;;;;;;;;;5053981;28;20208;-82
2022/02/16 03:39:15;;;;;;;24.90;18.37;;;;;;;;;;5054117;28;20337;-82
2022/02/16 03:41:42;;;;;;;22.10;17.00;;;;;;;;;;5053898;28;20202;-82
2022/02/16 03:44:09;;;;;;;18.50;13.83;;;;;;;;;;5053761;28;20728;-82
2022/02/16 03:46:38;;;;;;;19.83;15.03;;;;;;;;;;5053799;28;20229;-82
2022/02/16 03:49:05;;;;;;;21.33;15.23;;;;;;;;;;5053523;28;20194;-85
2022/02/16 03:51:34;;;;;;;20.67;15.93;;;;;;;;;;5053158;28;20225;-84
2022/02/16 03:54:01;;;;;;;26.43;20.23;;;;;;;;;;5053674;28;20205;-83
2022/02/16 03:56:28;;;;;;;22.73;18.27;;;;;;;;;;5053478;28;20237;-83
2022/02/16 03:58:56;;;;;;;21.70;18.33;;;;;;;;;;5053257;28;20237;-82
2022/02/16 04:01:23;;;;;;;18.77;15.10;;;;;;;;;;5053118;28;20204;-82
2022/02/16 04:03:52;;;;;;;18.03;14.40;;;;;;;;;;5052635;28;20202;-82
2022/02/16 04:06:19;;;;;;;16.70;13.73;;;;;;;;;;5053143;28;20678;-82
2022/02/16 04:08:46;;;;;;;16.67;13.40;;;;;;;;;;5053035;28;20293;-83
2022/02/16 04:11:14;;;;;;;41.97;32.47;;;;;;;;;;5053032;28;20202;-83
2022/02/16 04:13:41;;;;;;;29.23;23.03;;;;;;;;;;5053007;28;20212;-82
2022/02/16 04:16:08;;;;;;;44.63;29.03;;;;;;;;;;5053012;28;20284;-83
2022/02/16 04:18:36;;;;;;;30.67;21.07;;;;;;;;;;5052928;28;20246;-83
2022/02/16 04:21:04;;;;;;;29.90;18.20;;;;;;;;;;5052841;28;20252;-82
2022/02/16 04:23:32;;;;;;;22.50;15.63;;;;;;;;;;5052720;28;20689;-83
2022/02/16 04:25:59;;;;;;;22.87;14.37;;;;;;;;;;5052764;28;20194;-82
2022/02/16 04:28:26;;;;;;;20.57;15.10;;;;;;;;;;5052724;28;20237;-84
2022/02/16 04:30:54;;;;;;;21.83;15.63;;;;;;;;;;5047959;28;20206;-82
2022/02/16 04:33:21;;;;;;;24.10;14.83;;;;;;;;;;5051560;28;20197;-83
2022/02/16 04:35:48;;;;;;;20.20;13.93;;;;;;;;;;5051335;28;20212;-83
2022/02/16 04:38:17;;;;;;;26.77;18.77;;;;;;;;;;5051477;28;20222;-82
2022/02/16 04:40:44;;;;;;;20.40;15.63;;;;;;;;;;5051128;28;20225;-85
2022/02/16 04:43:12;;;;;;;20.23;14.53;;;;;;;;;;5051582;28;20224;-85
2022/02/16 04:45:39;;;;;;;19.43;15.27;;;;;;;;;;5051643;28;20633;-83
2022/02/16 04:48:11;;;;;;;17.13;13.43;;;;;;;;;;5051502;28;20212;-83
2022/02/16 04:50:38;;;;;;;18.63;14.07;;;;;;;;;;5053501;28;20190;-84
2022/02/16 04:53:05;;;;;;;18.07;13.47;;;;;;;;;;5051148;28;20321;-83
2022/02/16 04:55:34;;;;;;;16.90;12.83;;;;;;;;;;5051065;28;20202;-83
2022/02/16 04:58:01;;;;;;;20.83;13.80;;;;;;;;;;5050706;28;20288;-83
2022/02/16 05:00:29;;;;;;;15.70;13.07;;;;;;;;;;5050873;28;20257;-83
2022/02/16 05:02:56;;;;;;;15.20;13.53;;;;;;;;;;5050920;28;20285;-83
2022/02/16 05:05:23;;;;;;;17.20;13.83;;;;;;;;;;5050905;28;20194;-82
2022/02/16 05:07:50;;;;;;;16.93;13.30;;;;;;;;;;5050946;28;20601;-83
2022/02/16 05:10:18;;;;;;;17.03;14.60;;;;;;;;;;5050524;28;20559;-83
2022/02/16 05:12:46;;;;;;;17.73;14.23;;;;;;;;;;5050754;28;20236;-84
2022/02/16 05:15:14;;;;;;;17.03;12.40;;;;;;;;;;5050729;28;20715;-84
2022/02/16 05:17:41;;;;;;;13.60;11.87;;;;;;;;;;5050995;28;20289;-84
2022/02/16 05:20:09;;;;;;;15.53;12.70;;;;;;;;;;5050395;28;20316;-83
2022/02/16 05:22:37;;;;;;;21.60;15.87;;;;;;;;;;5051622;28;20200;-84
2022/02/16 05:25:05;;;;;;;21.87;18.30;;;;;;;;;;5051718;28;20204;-84
2022/02/16 05:27:32;;;;;;;19.13;15.20;;;;;;;;;;5052101;28;20679;-84
2022/02/16 05:30:01;;;;;;;17.30;14.83;;;;;;;;;;5051729;28;20225;-83
2022/02/16 05:32:28;;;;;;;22.47;17.07;;;;;;;;;;5051656;28;20574;-84
2022/02/16 05:34:56;;;;;;;23.77;18.27;;;;;;;;;;5051763;28;20288;-84
2022/02/16 05:37:23;;;;;;;26.60;21.00;;;;;;;;;;5051992;28;20361;-84
2022/02/16 05:39:51;;;;;;;23.90;17.87;;;;;;;;;;5051672;28;20261;-84
2022/02/16 05:42:18;;;;;;;18.67;15.10;;;;;;;;;;5051681;28;20194;-84
2022/02/16 05:44:45;;;;;;;20.20;14.33;;;;;;;;;;5051643;28;20208;-84
2022/02/16 05:47:14;;;;;;;19.43;16.90;;;;;;;;;;5051680;28;20198;-84
2022/02/16 05:49:41;;;;;;;18.70;16.03;;;;;;;;;;5051626;28;20197;-84
2022/02/16 05:52:09;;;;;;;26.33;23.17;;;;;;;;;;5051472;28;20670;-84
2022/02/16 05:54:36;;;;;;;27.10;22.60;;;;;;;;;;5051902;28;20194;-83
2022/02/16 05:57:04;;;;;;;26.27;22.40;;;;;;;;;;5051606;28;20689;-84
2022/02/16 05:59:31;;;;;;;29.77;23.37;;;;;;;;;;5051146;28;20342;-84
2022/02/16 06:02:03;;;;;;;27.10;23.30;;;;;;;;;;5052006;28;20206;-85
2022/02/16 06:04:31;;;;;;;26.30;21.33;;;;;;;;;;5051535;28;20186;-85
2022/02/16 06:06:59;;;;;;;25.93;20.03;;;;;;;;;;5051716;28;20225;-85
2022/02/16 06:09:27;;;;;;;17.63;15.53;;;;;;;;;;5051466;28;20576;-84
2022/02/16 06:11:54;;;;;;;50.67;38.77;;;;;;;;;;5051333;28;20193;-84
2022/02/16 06:14:21;;;;;;;67.47;52.40;;;;;;;;;;5051696;28;20222;-85
2022/02/16 06:16:49;;;;;;;38.37;31.30;;;;;;;;;;5051302;28;20204;-84
2022/02/16 06:19:16;;;;;;;25.27;21.37;;;;;;;;;;5051586;28;20200;-84
2022/02/16 06:21:45;;;;;;;23.80;19.53;;;;;;;;;;5051374;28;20190;-85
2022/02/16 06:24:12;;;;;;;27.83;21.37;;;;;;;;;;5051305;28;20692;-84
2022/02/16 06:26:39;;;;;;;19.97;17.23;;;;;;;;;;5051578;28;20240;-84
2022/02/16 06:29:06;;;;;;;24.50;16.97;;;;;;;;;;5055814;28;20280;-84
2022/02/16 06:31:35;;;;;;;33.73;22.97;;;;;;;;;;5054869;28;20201;-86
2022/02/16 06:34:02;;;;;;;36.87;29.27;;;;;;;;;;5055055;28;20198;-86
2022/02/16 06:36:30;;;;;;;60.53;44.93;;;;;;;;;;5055463;28;20205;-87
2022/02/16 06:38:58;;;;;;;57.87;43.07;;;;;;;;;;5055249;28;20201;-88
2022/02/16 06:41:28;;;;;;;53.57;41.97;;;;;;;;;;5055457;28;20214;-89
2022/02/16 06:43:55;;;;;;;46.60;34.07;;;;;;;;;;5055762;28;20201;-91
2022/02/16 06:46:22;;;;;;;38.37;30.63;;;;;;;;;;5055895;28;20204;-89
2022/02/16 06:48:50;;;;;;;38.53;29.23;;;;;;;;;;5055735;28;20202;-90
2022/02/16 06:51:18;;;;;;;173.23;100.97;;;;;;;;;;5055239;28;20204;-89
2022/02/16 06:53:45;;;;;;;87.00;53.80;;;;;;;;;;5055556;28;20194;-89
2022/02/16 06:56:14;;;;;;;77.57;49.90;;;;;;;;;;5055319;28;20194;-90
2022/02/16 06:58:41;;;;;;;142.90;87.53;;;;;;;;;;5055317;28;20201;-91
2022/02/16 07:01:08;;;;;;;63.17;43.73;;;;;;;;;;5055713;28;20363;-89
2022/02/16 07:03:36;;;;;;;54.87;39.83;;;;;;;;;;5055053;28;20197;-90
2022/02/16 07:06:03;;;;;;;45.10;32.33;;;;;;;;;;5054998;28;20200;-89
2022/02/16 07:08:30;;;;;;;43.37;31.63;;;;;;;;;;5055025;28;20193;-90
2022/02/16 07:10:58;;;;;;;28.03;22.73;;;;;;;;;;5055077;28;20194;-90
2022/02/16 07:13:26;;;;;;;20.90;18.60;;;;;;;;;;5055759;28;20194;-89
2022/02/16 07:15:54;;;;;;;26.23;19.60;;;;;;;;;;5055179;28;20194;-89
2022/02/16 07:18:21;;;;;;;33.60;23.33;;;;;;;;;;5055842;28;20193;-89
2022/02/16 07:20:48;;;;;;;29.20;21.77;;;;;;;;;;5054234;28;20223;-89
2022/02/16 07:23:15;;;;;;;26.57;19.20;;;;;;;;;;5054533;28;20225;-89
2022/02/16 07:25:43;;;;;;;24.87;19.97;;;;;;;;;;5055133;28;20251;-91
2022/02/16 07:28:10;;;;;;;20.07;17.87;;;;;;;;;;5054823;28;20285;-90
2022/02/16 07:30:39;;;;;;;32.77;22.77;;;;;;;;;;5054926;28;20256;-90
2022/02/16 07:33:06;;;;;;;21.47;17.77;;;;;;;;;;5054799;28;20281;-90
2022/02/16 07:35:34;;;;;;;22.90;18.70;;;;;;;;;;5054515;28;20255;-90
2022/02/16 07:38:01;;;;;;;30.20;26.03;;;;;;;;;;5054404;28;20201;-90
2022/02/16 07:40:29;;;;;;;23.33;19.40;;;;;;;;;;5054324;28;20268;-91
2022/02/16 07:42:56;;;;;;;26.90;20.13;;;;;;;;;;5054704;28;20663;-90
2022/02/16 07:45:23;;;;;;;21.33;17.73;;;;;;;;;;5054651;28;20201;-90
2022/02/16 07:47:52;;;;;;;30.23;23.83;;;;;;;;;;5054734;28;20201;-90
2022/02/16 07:50:19;;;;;;;20.83;16.87;;;;;;;;;;5054479;28;20194;-89
2022/02/16 07:52:47;;;;;;;22.93;19.03;;;;;;;;;;5054149;28;20240;-90
2022/02/16 07:55:14;;;;;;;18.47;16.17;;;;;;;;;;5054334;28;20283;-90
2022/02/16 07:57:41;;;;;;;18.63;16.00;;;;;;;;;;5055822;28;20217;-89
2022/02/16 08:00:10;;;;;;;22.07;16.90;;;;;;;;;;5054865;28;20257;-90
2022/02/16 08:02:37;;;;;;;27.43;19.67;;;;;;;;;;5054282;28;20256;-90
2022/02/16 08:05:07;;;;;;;25.50;19.50;;;;;;;;;;5054199;28;20196;-90
2022/02/16 08:07:34;;;;;;;19.07;16.10;;;;;;;;;;5054013;28;20221;-90
2022/02/16 08:10:01;;;;;;;22.07;17.40;;;;;;;;;;5054102;28;20198;-90
2022/02/16 08:12:29;;;;;;;28.97;22.43;;;;;;;;;;5054730;28;20280;-89
2022/02/16 08:14:56;;;;;;;26.90;19.20;;;;;;;;;;5054241;28;20632;-89
2022/02/16 08:17:23;;;;;;;22.73;16.77;;;;;;;;;;5053819;28;20201;-90
2022/02/16 08:19:51;;;;;;;25.00;20.87;;;;;;;;;;5053620;28;20226;-90
2022/02/16 08:22:20;;;;;;;18.70;15.70;;;;;;;;;;5053647;28;20201;-90
2022/02/16 08:24:47;;;;;;;34.30;26.43;;;;;;;;;;5053686;28;20202;-90
2022/02/16 08:27:15;;;;;;;39.97;30.33;;;;;;;;;;5054695;28;20210;-90
2022/02/16 08:29:43;;;;;;;21.20;16.97;;;;;;;;;;5054379;28;20198;-90
2022/02/16 08:32:10;;;;;;;25.90;19.03;;;;;;;;;;5053641;28;20384;-91
2022/02/16 08:34:37;;;;;;;21.63;18.10;;;;;;;;;;5053473;28;20233;-91
2022/02/16 08:37:06;;;;;;;25.70;18.87;;;;;;;;;;5053899;28;20208;-91
2022/02/16 08:39:35;;;;;;;30.57;20.27;;;;;;;;;;5053794;28;20648;-91
2022/02/16 08:42:02;;;;;;;26.33;19.83;;;;;;;;;;5053369;28;20304;-92
2022/02/16 08:44:30;;;;;;;28.63;21.83;;;;;;;;;;5053376;28;20686;-91
2022/02/16 08:46:57;;;;;;;25.70;19.07;;;;;;;;;;5053571;28;20202;-91
2022/02/16 08:49:25;;;;;;;25.00;19.53;;;;;;;;;;5052745;28;20685;-91
2022/02/16 08:51:52;;;;;;;16.70;14.97;;;;;;;;;;5052929;28;20261;-91
2022/02/16 08:54:20;;;;;;;22.73;18.67;;;;;;;;;;5053189;28;20198;-90
2022/02/16 08:56:49;;;;;;;17.57;15.57;;;;;;;;;;5053155;28;20204;-91
2022/02/16 08:59:17;;;;;;;20.93;17.00;;;;;;;;;;5053414;28;20198;-91
2022/02/16 09:01:44;;;;;;;25.40;18.80;;;;;;;;;;5053903;28;20312;-90
2022/02/16 09:04:11;;;;;;;24.87;17.97;;;;;;;;;;5053988;28;20581;-91
2022/02/16 09:07:27;;;;;;;24.27;18.83;;;;;;;;;;5053273;28;20229;-90
2022/02/16 09:09:26;;;;;;;21.90;17.37;;;;;;;;;;5052816;28;20202;-90
2022/02/16 09:11:54;;;;;;;21.97;18.03;;;;;;;;;;5052991;28;20194;-90
2022/02/16 09:14:22;;;;;;;22.63;16.83;;;;;;;;;;5053024;28;20201;-90
2022/02/16 09:16:49;;;;;;;24.90;17.33;;;;;;;;;;5052898;28;20659;-89
2022/02/16 09:19:16;;;;;;;18.90;16.57;;;;;;;;;;5052665;28;20255;-89
2022/02/16 09:21:44;;;;;;;18.77;16.17;;;;;;;;;;5052709;28;20312;-89
2022/02/16 09:24:11;;;;;;;20.17;15.23;;;;;;;;;;5053176;28;20197;-90
2022/02/16 09:26:38;;;;;;;18.13;16.13;;;;;;;;;;5052855;28;20243;-89
2022/02/16 09:29:07;;;;;;;21.50;16.00;;;;;;;;;;5052920;28;20743;-90
2022/02/16 09:31:35;;;;;;;23.97;20.20;;;;;;;;;;5052878;28;20663;-90
2022/02/16 09:34:02;;;;;;;18.33;16.33;;;;;;;;;;5052724;28;20202;-90
2022/02/16 09:36:32;;;;;;;19.93;17.20;;;;;;;;;;5052766;28;20288;-90
2022/02/16 09:38:59;;;;;;;20.07;17.00;;;;;;;;;;5052661;28;20252;-90
2022/02/16 09:41:26;;;;;;;17.83;15.97;;;;;;;;;;5052516;28;20232;-90
2022/02/16 09:43:54;;;;;;;22.63;16.83;;;;;;;;;;5052909;28;20634;-90
2022/02/16 09:46:23;;;;;;;24.13;17.43;;;;;;;;;;5053511;28;20275;-91
2022/02/16 09:48:51;;;;;;;21.83;17.17;;;;;;;;;;5052563;28;20692;-90
2022/02/16 09:51:19;;;;;;;20.60;16.40;;;;;;;;;;5052327;28;20197;-92
2022/02/16 09:53:47;;;;;;;25.17;18.43;;;;;;;;;;5052539;28;20236;-91
2022/02/16 09:56:14;;;;;;;22.73;17.63;;;;;;;;;;5052680;28;20654;-89
2022/02/16 09:58:41;;;;;;;31.80;23.80;;;;;;;;;;5052888;28;20194;-90
2022/02/16 10:01:11;;;;;;;27.63;20.67;;;;;;;;;;5052433;28;20253;-90
2022/02/16 10:03:40;;;;;;;27.10;21.93;;;;;;;;;;5056390;28;20269;-91
2022/02/16 10:06:07;;;;;;;27.17;21.13;;;;;;;;;;5056675;28;20586;-89
2022/02/16 10:08:42;;;;;;;26.60;22.80;;;;;;;;;;5056902;28;20208;-90
2022/02/16 10:11:10;;;;;;;24.80;20.90;;;;;;;;;;5056668;28;20201;-90
2022/02/16 10:13:37;;;;;;;25.47;20.40;;;;;;;;;;5056294;28;20198;-91
2022/02/16 10:16:05;;;;;;;27.50;20.93;;;;;;;;;;5056670;28;20230;-91
2022/02/16 10:18:33;;;;;;;27.13;21.13;;;;;;;;;;5056075;28;20204;-90
2022/02/16 10:21:10;;;;;;;26.37;20.00;;;;;;;;;;5055730;28;20229;-89
2022/02/16 10:23:41;;;;;;;25.87;21.43;;;;;;;;;;5056868;28;20193;-90
2022/02/16 10:26:09;;;;;;;24.47;19.73;;;;;;;;;;5056445;28;20232;-91
2022/02/16 10:28:42;;;;;;;40.20;29.87;;;;;;;;;;5056747;28;20240;-91
2022/02/16 10:31:09;;;;;;;60.60;40.13;;;;;;;;;;5056049;28;20189;-91
2022/02/16 10:33:38;;;;;;;60.47;38.87;;;;;;;;;;5056012;28;20237;-90
2022/02/16 10:36:09;;;;;;;56.57;38.40;;;;;;;;;;5056279;28;20285;-91
2022/02/16 10:38:52;;;;;;;42.03;30.87;;;;;;;;;;5056031;28;20197;-92
2022/02/16 10:41:20;;;;;;;63.57;40.70;;;;;;;;;;5055961;28;20216;-91
2022/02/16 10:43:48;;;;;;;44.87;30.37;;;;;;;;;;5055636;28;20277;-90
2022/02/16 10:46:21;;;;;;;45.37;33.53;;;;;;;;;;5055669;28;20205;-92
2022/02/16 10:48:49;;;;;;;37.23;26.90;;;;;;;;;;5055612;28;20229;-92
2022/02/16 10:51:19;;;;;;;36.43;28.33;;;;;;;;;;5055500;28;20618;-92
2022/02/16 10:53:47;;;;;;;47.53;34.43;;;;;;;;;;5055633;28;20244;-91
2022/02/16 10:56:15;;;;;;;39.33;30.00;;;;;;;;;;5055952;28;20284;-92
2022/02/16 10:58:42;;;;;;;34.37;25.83;;;;;;;;;;5055339;28;20236;-93
2022/02/16 11:01:11;;;;;;;35.93;27.43;;;;;;;;;;5055137;28;20343;-92
2022/02/16 11:03:43;;;;;;;59.70;41.67;;;;;;;;;;5055265;28;20204;-91
2022/02/16 11:06:13;;;;;;;89.50;54.07;;;;;;;;;;5055608;28;20185;-91
2022/02/16 11:08:43;;;;;;;41.43;30.93;;;;;;;;;;5055868;28;20233;-92
2022/02/16 11:11:11;;;;;;;71.03;50.27;;;;;;;;;;5055430;28;20643;-92
2022/02/16 11:13:38;;;;;;;48.00;36.60;;;;;;;;;;5054597;28;20205;-92
2022/02/16 11:16:06;;;;;;;45.50;34.60;;;;;;;;;;5055288;28;20640;-91
2022/02/16 11:18:47;;;;;;;41.07;32.07;;;;;;;;;;5055225;28;20200;-92
2022/02/16 11:21:15;;;;;;;29.03;23.40;;;;;;;;;;5058763;28;20220;-92
2022/02/16 11:23:47;;;;;;;31.93;24.83;;;;;;;;;;5055804;28;20204;-91
2022/02/16 11:26:37;;;;;;;45.13;33.47;;;;;;;;;;5054878;28;20651;-91
2022/02/16 11:29:09;;;;;;;51.27;37.73;;;;;;;;;;5055368;28;20220;-90
2022/02/16 11:31:37;;;;;;;50.63;35.87;;;;;;;;;;5055345;28;20702;-90
2022/02/16 11:34:16;;;;;;;37.13;25.13;;;;;;;;;;5055039;28;20195;-93
2022/02/16 11:36:52;;;;;;;34.77;23.27;;;;;;;;;;5055342;28;20288;-90
2022/02/16 11:39:59;;;;;;;24.23;18.00;;;;;;;;;;5055162;28;20289;-90
2022/02/16 11:42:54;;;;;;;28.20;18.90;;;;;;;;;;5054741;28;20225;-91
2022/02/16 11:45:26;;;;;;;28.20;20.03;;;;;;;;;;5055191;28;20186;-91
2022/02/16 11:47:55;;;;;;;22.53;17.40;;;;;;;;;;5054769;28;20194;-90
2022/02/16 11:50:39;;;;;;;29.40;20.30;;;;;;;;;;5054399;28;20293;-92
2022/02/16 11:53:09;;;;;;;26.50;17.77;;;;;;;;;;5054122;28;20226;-90
2022/02/16 11:55:40;;;;;;;24.93;17.20;;;;;;;;;;5054516;28;20692;-90
2022/02/16 11:58:19;;;;;;;23.07;17.40;;;;;;;;;;5054260;28;20265;-90
2022/02/16 12:01:03;;;;;;;23.97;15.97;;;;;;;;;;5054117;28;20216;-91
2022/02/16 12:03:36;;;;;;;29.33;17.67;;;;;;;;;;5054142;28;20289;-91
2022/02/16 12:06:09;;;;;;;23.67;18.93;;;;;;;;;;5054984;28;20214;-91
2022/02/16 12:08:39;;;;;;;22.10;17.83;;;;;;;;;;5054187;28;20647;-90
2022/02/16 12:11:21;;;;;;;18.90;15.33;;;;;;;;;;5054467;28;20259;-90
2022/02/16 12:13:53;;;;;;;24.30;17.23;;;;;;;;;;5054112;28;20204;-93
2022/02/16 12:16:26;;;;;;;23.30;15.30;;;;;;;;;;5054098;28;20197;-90
2022/02/16 12:18:53;;;;;;;18.50;15.90;;;;;;;;;;5053999;28;20198;-91
2022/02/16 12:21:25;;;;;;;21.43;16.80;;;;;;;;;;5053994;28;20308;-91
2022/02/16 12:23:59;;;;;;;17.13;14.40;;;;;;;;;;5053850;28;20220;-91
2022/02/16 12:26:30;;;;;;;19.13;14.20;;;;;;;;;;5053869;28;20700;-91
2022/02/16 12:29:03;;;;;;;22.03;18.60;;;;;;;;;;5053865;28;20212;-91
2022/02/16 12:31:34;;;;;;;95.37;51.60;;;;;;;;;;5054362;28;20721;-91
2022/02/16 12:34:05;;;;;;;251.17;118.63;;;;;;;;;;5053986;28;20284;-90
2022/02/16 12:36:34;;;;;;;98.33;51.70;;;;;;;;;;5053931;28;20194;-92
2022/02/16 12:39:03;;;;;;;102.70;55.77;;;;;;;;;;5053861;28;20281;-92
2022/02/16 12:41:32;;;;;;;60.47;34.87;;;;;;;;;;5053321;28;20221;-91
2022/02/16 12:44:01;;;;;;;139.87;76.47;;;;;;;;;;5053414;28;20693;-92
2022/02/16 12:46:30;;;;;;;33.97;25.47;;;;;;;;;;5053215;28;20202;-92
2022/02/16 12:48:58;;;;;;;23.47;16.17;;;;;;;;;;5053391;28;20276;-91
2022/02/16 12:51:31;;;;;;;19.80;15.50;;;;;;;;;;5053248;28;20287;-91
2022/02/16 12:54:04;;;;;;;19.17;15.67;;;;;;;;;;5053389;28;20204;-91
2022/02/16 12:56:38;;;;;;;17.40;14.33;;;;;;;;;;5053919;28;20210;-91
2022/02/16 12:59:14;;;;;;;20.57;15.83;;;;;;;;;;5053557;28;20263;-91
2022/02/16 13:01:42;;;;;;;21.67;16.20;;;;;;;;;;5053389;28;20304;-92
2022/02/16 13:04:09;;;;;;;27.53;21.00;;;;;;;;;;5053652;28;20620;-92
2022/02/16 13:06:38;;;;;;;38.10;26.10;;;;;;;;;;5052992;28;20190;-91
2022/02/16 13:09:06;;;;;;;40.07;27.50;;;;;;;;;;5052923;28;20198;-92
2022/02/16 13:11:47;;;;;;;35.37;28.33;;;;;;;;;;5053832;28;20300;-91
2022/02/16 13:14:14;;;;;;;26.80;22.50;;;;;;;;;;5053162;28;20185;-91
2022/02/16 13:17:01;;;;;;;26.20;19.83;;;;;;;;;;5053378;28;20206;-92
2022/02/16 13:19:49;;;;;;;24.13;17.23;;;;;;;;;;5052877;28;20606;-92
2022/02/16 13:22:19;;;;;;;26.17;20.60;;;;;;;;;;5052945;28;20224;-91
2022/02/16 13:24:51;;;;;;;18.87;15.43;;;;;;;;;;5053087;28;20209;-92
2022/02/16 13:27:20;;;;;;;24.47;18.87;;;;;;;;;;5052960;28;20198;-91
2022/02/16 13:30:00;;;;;;;19.57;15.60;;;;;;;;;;5052744;28;20205;-91
2022/02/16 13:32:31;;;;;;;34.87;23.57;;;;;;;;;;5053043;28;20268;-91
2022/02/16 13:35:00;;;;;;;21.83;14.90;;;;;;;;;;5052787;28;20285;-91
2022/02/16 13:37:28;;;;;;;21.67;17.83;;;;;;;;;;5058681;28;20193;-91
2022/02/16 13:40:12;;;;;;;19.37;14.90;;;;;;;;;;5059761;28;20201;-92
2022/02/16 13:42:57;;;;;;;24.97;17.90;;;;;;;;;;5059170;28;20735;-90
2022/02/16 13:45:29;;;;;;;29.97;21.57;;;;;;;;;;5059282;28;20198;-91
2022/02/16 13:47:57;;;;;;;46.50;34.47;;;;;;;;;;5059704;28;20202;-91
2022/02/16 13:50:29;;;;;;;26.13;20.63;;;;;;;;;;5059502;28;20228;-91
2022/02/16 13:52:57;;;;;;;24.27;19.23;;;;;;;;;;5059513;28;20233;-91
2022/02/16 13:55:24;;;;;;;39.07;29.23;;;;;;;;;;5059675;28;20201;-91
2022/02/16 13:57:52;;;;;;;24.57;19.73;;;;;;;;;;5059355;28;20207;-91
2022/02/16 14:00:22;;;;;;;18.67;13.60;;;;;;;;;;5059616;28;20220;-91
2022/02/16 14:03:06;;;;;;;19.23;14.77;;;;;;;;;;5059097;28;20221;-92
2022/02/16 14:05:34;;;;;;;12.83;10.47;;;;;;;;;;5059093;28;20186;-90
2022/02/16 14:08:03;;;;;;;13.03;10.63;;;;;;;;;;5059637;28;20204;-91
2022/02/16 14:10:31;;;;;;;13.40;11.43;;;;;;;;;;5059196;28;20201;-91
2022/02/16 14:12:58;;;;;;;13.83;11.83;;;;;;;;;;5059240;28;20663;-90
2022/02/16 14:15:27;;;;;;;22.57;15.90;;;;;;;;;;5059580;28;20658;-92
2022/02/16 14:17:55;;;;;;;90.10;52.30;;;;;;;;;;5059152;28;20284;-91
2022/02/16 14:20:23;;;;;;;149.67;66.10;;;;;;;;;;5059228;28;20233;-90
2022/02/16 14:22:51;;;;;;;180.83;80.07;;;;;;;;;;5059317;28;20217;-90
2022/02/16 14:25:18;;;;;;;42.10;27.53;;;;;;;;;;5059367;28;20201;-90
2022/02/16 14:27:47;;;;;;;36.27;28.23;;;;;;;;;;5058776;28;20288;-90